sensor_id;sensor_type;location;lat;lon;timestamp;P1;durP1;ratioP1;P2;durP2;ratioP2
4698;SDS011;33708;49.466;11.176;2024-02-26T00:01:36;7.67;;;2.97;;
4698;SDS011;33708;49.466;11.176;2024-02-26T00:04:02;4.20;;;2.40;;
4698;SDS011;33708;49.466;11.176;2024-02-26T00:06:28;5.97;;;2.70;;
4698;SDS011;33708;49.466;11.176;2024-02-26T00:08:54;4.70;;;2.70;;
4698;SDS011;33708;49.466;11.176;2024-02-26T00:11:19;9.80;;;3.27;;
4698;SDS011;33708;49.466;11.176;2024-02-26T00:13:45;5.47;;;3.00;;
4698;SDS011;33708;49.466;11.176;2024-02-26T00:16:10;6.27;;;2.73;;
4698;SDS011;33708;49.466;11.176;2024-02-26T00:18:36;8.30;;;4.73;;
4698;SDS011;33708;49.466;11.176;2024-02-26T00:21:02;4.40;;;2.50;;
4698;SDS011;33708;49.466;11.176;2024-02-26T00:23:28;5.37;;;2.57;;
4698;SDS011;33708;49.466;11.176;2024-02-26T00:25:54;8.70;;;4.63;;
4698;SDS011;33708;49.466;11.176;2024-02-26T00:28:20;22.50;;;14.00;;
4698;SDS011;33708;49.466;11.176;2024-02-26T00:30:46;11.80;;;7.10;;
4698;SDS011;33708;49.466;11.176;2024-02-26T00:33:12;12.10;;;6.67;;
4698;SDS011;33708;49.466;11.176;2024-02-26T00:35:39;7.97;;;3.73;;
4698;SDS011;33708;49.466;11.176;2024-02-26T00:38:04;5.63;;;3.03;;
4698;SDS011;33708;49.466;11.176;2024-02-26T00:40:31;11.33;;;3.43;;
4698;SDS011;33708;49.466;11.176;2024-02-26T00:42:56;4.67;;;2.90;;
4698;SDS011;33708;49.466;11.176;2024-02-26T00:45:22;8.60;;;4.90;;
4698;SDS011;33708;49.466;11.176;2024-02-26T00:47:47;7.30;;;3.20;;
4698;SDS011;33708;49.466;11.176;2024-02-26T00:50:14;8.23;;;3.73;;
4698;SDS011;33708;49.466;11.176;2024-02-26T00:52:40;8.20;;;4.40;;
4698;SDS011;33708;49.466;11.176;2024-02-26T00:55:05;6.53;;;4.27;;
4698;SDS011;33708;49.466;11.176;2024-02-26T00:57:32;9.30;;;6.10;;
4698;SDS011;33708;49.466;11.176;2024-02-26T00:59:57;21.77;;;13.93;;
4698;SDS011;33708;49.466;11.176;2024-02-26T01:02:24;20.67;;;8.47;;
4698;SDS011;33708;49.466;11.176;2024-02-26T01:04:50;12.63;;;7.07;;
4698;SDS011;33708;49.466;11.176;2024-02-26T01:07:15;16.23;;;7.77;;
4698;SDS011;33708;49.466;11.176;2024-02-26T01:09:41;9.37;;;5.20;;
4698;SDS011;33708;49.466;11.176;2024-02-26T01:12:07;6.53;;;4.07;;
4698;SDS011;33708;49.466;11.176;2024-02-26T01:14:33;6.77;;;3.70;;
4698;SDS011;33708;49.466;11.176;2024-02-26T01:16:59;6.80;;;4.10;;
4698;SDS011;33708;49.466;11.176;2024-02-26T01:19:24;10.67;;;4.13;;
4698;SDS011;33708;49.466;11.176;2024-02-26T01:21:50;9.17;;;4.87;;
4698;SDS011;33708;49.466;11.176;2024-02-26T01:24:16;11.53;;;6.07;;
4698;SDS011;33708;49.466;11.176;2024-02-26T01:26:42;7.90;;;4.37;;
4698;SDS011;33708;49.466;11.176;2024-02-26T01:29:08;7.37;;;3.97;;
4698;SDS011;33708;49.466;11.176;2024-02-26T01:31:33;11.03;;;6.17;;
4698;SDS011;33708;49.466;11.176;2024-02-26T01:34:02;8.27;;;4.93;;
4698;SDS011;33708;49.466;11.176;2024-02-26T01:36:27;14.83;;;6.07;;
4698;SDS011;33708;49.466;11.176;2024-02-26T01:38:53;11.03;;;4.93;;
4698;SDS011;33708;49.466;11.176;2024-02-26T01:41:18;12.67;;;6.20;;
4698;SDS011;33708;49.466;11.176;2024-02-26T01:43:44;7.63;;;4.30;;
4698;SDS011;33708;49.466;11.176;2024-02-26T01:46:12;8.60;;;5.20;;
4698;SDS011;33708;49.466;11.176;2024-02-26T01:48:43;11.63;;;6.13;;
4698;SDS011;33708;49.466;11.176;2024-02-26T01:51:11;10.43;;;6.03;;
4698;SDS011;33708;49.466;11.176;2024-02-26T01:53:38;11.77;;;6.10;;
4698;SDS011;33708;49.466;11.176;2024-02-26T01:56:04;11.97;;;6.53;;
4698;SDS011;33708;49.466;11.176;2024-02-26T01:58:30;13.03;;;6.87;;
4698;SDS011;33708;49.466;11.176;2024-02-26T02:00:56;11.17;;;6.47;;
4698;SDS011;33708;49.466;11.176;2024-02-26T02:03:23;12.53;;;7.23;;
4698;SDS011;33708;49.466;11.176;2024-02-26T02:05:49;11.30;;;5.97;;
4698;SDS011;33708;49.466;11.176;2024-02-26T02:08:15;12.20;;;6.27;;
4698;SDS011;33708;49.466;11.176;2024-02-26T02:10:41;19.07;;;9.20;;
4698;SDS011;33708;49.466;11.176;2024-02-26T02:13:07;10.80;;;6.60;;
4698;SDS011;33708;49.466;11.176;2024-02-26T02:15:33;14.20;;;7.50;;
4698;SDS011;33708;49.466;11.176;2024-02-26T02:17:59;8.60;;;5.30;;
4698;SDS011;33708;49.466;11.176;2024-02-26T02:20:26;22.60;;;10.53;;
4698;SDS011;33708;49.466;11.176;2024-02-26T02:23:00;10.10;;;5.00;;
4698;SDS011;33708;49.466;11.176;2024-02-26T02:25:26;13.30;;;7.27;;
4698;SDS011;33708;49.466;11.176;2024-02-26T02:27:53;14.50;;;7.60;;
4698;SDS011;33708;49.466;11.176;2024-02-26T02:30:24;12.17;;;6.23;;
4698;SDS011;33708;49.466;11.176;2024-02-26T02:32:52;22.17;;;10.57;;
4698;SDS011;33708;49.466;11.176;2024-02-26T02:35:18;20.57;;;9.73;;
4698;SDS011;33708;49.466;11.176;2024-02-26T02:37:44;12.97;;;6.00;;
4698;SDS011;33708;49.466;11.176;2024-02-26T02:40:10;13.03;;;6.97;;
4698;SDS011;33708;49.466;11.176;2024-02-26T02:42:35;12.80;;;7.13;;
4698;SDS011;33708;49.466;11.176;2024-02-26T02:45:01;14.30;;;7.40;;
4698;SDS011;33708;49.466;11.176;2024-02-26T02:47:26;12.67;;;6.00;;
4698;SDS011;33708;49.466;11.176;2024-02-26T02:49:52;10.80;;;6.60;;
4698;SDS011;33708;49.466;11.176;2024-02-26T02:52:18;14.13;;;7.40;;
4698;SDS011;33708;49.466;11.176;2024-02-26T02:54:43;16.10;;;8.47;;
4698;SDS011;33708;49.466;11.176;2024-02-26T02:57:09;18.33;;;9.30;;
4698;SDS011;33708;49.466;11.176;2024-02-26T02:59:35;14.67;;;7.60;;
4698;SDS011;33708;49.466;11.176;2024-02-26T03:02:02;13.40;;;8.00;;
4698;SDS011;33708;49.466;11.176;2024-02-26T03:04:28;17.70;;;6.53;;
4698;SDS011;33708;49.466;11.176;2024-02-26T03:06:54;15.63;;;8.73;;
4698;SDS011;33708;49.466;11.176;2024-02-26T03:09:20;17.37;;;9.60;;
4698;SDS011;33708;49.466;11.176;2024-02-26T03:11:45;16.07;;;8.87;;
4698;SDS011;33708;49.466;11.176;2024-02-26T03:14:11;13.03;;;7.10;;
4698;SDS011;33708;49.466;11.176;2024-02-26T03:16:37;14.00;;;7.10;;
4698;SDS011;33708;49.466;11.176;2024-02-26T03:19:02;13.00;;;7.73;;
4698;SDS011;33708;49.466;11.176;2024-02-26T03:21:28;17.57;;;8.87;;
4698;SDS011;33708;49.466;11.176;2024-02-26T03:23:54;10.60;;;5.13;;
4698;SDS011;33708;49.466;11.176;2024-02-26T03:26:20;10.73;;;6.70;;
4698;SDS011;33708;49.466;11.176;2024-02-26T03:28:46;15.80;;;6.80;;
4698;SDS011;33708;49.466;11.176;2024-02-26T03:31:12;17.47;;;7.30;;
4698;SDS011;33708;49.466;11.176;2024-02-26T03:33:38;12.17;;;5.47;;
4698;SDS011;33708;49.466;11.176;2024-02-26T03:36:03;9.60;;;5.30;;
4698;SDS011;33708;49.466;11.176;2024-02-26T03:38:29;10.70;;;5.60;;
4698;SDS011;33708;49.466;11.176;2024-02-26T03:40:55;9.37;;;4.53;;
4698;SDS011;33708;49.466;11.176;2024-02-26T03:43:21;9.10;;;5.30;;
4698;SDS011;33708;49.466;11.176;2024-02-26T03:45:46;9.93;;;4.77;;
4698;SDS011;33708;49.466;11.176;2024-02-26T03:48:12;10.83;;;5.80;;
4698;SDS011;33708;49.466;11.176;2024-02-26T03:50:38;10.40;;;5.37;;
4698;SDS011;33708;49.466;11.176;2024-02-26T03:53:03;11.50;;;5.93;;
4698;SDS011;33708;49.466;11.176;2024-02-26T03:55:29;10.53;;;6.10;;
4698;SDS011;33708;49.466;11.176;2024-02-26T03:57:55;10.23;;;5.30;;
4698;SDS011;33708;49.466;11.176;2024-02-26T04:00:21;9.10;;;5.57;;
4698;SDS011;33708;49.466;11.176;2024-02-26T04:02:46;11.23;;;5.70;;
4698;SDS011;33708;49.466;11.176;2024-02-26T04:05:12;11.63;;;5.83;;
4698;SDS011;33708;49.466;11.176;2024-02-26T04:07:39;12.20;;;5.50;;
4698;SDS011;33708;49.466;11.176;2024-02-26T04:10:09;10.17;;;6.03;;
4698;SDS011;33708;49.466;11.176;2024-02-26T04:12:35;8.80;;;4.97;;
4698;SDS011;33708;49.466;11.176;2024-02-26T04:15:03;9.00;;;5.27;;
4698;SDS011;33708;49.466;11.176;2024-02-26T04:17:29;8.20;;;4.80;;
4698;SDS011;33708;49.466;11.176;2024-02-26T04:19:55;15.40;;;5.57;;
4698;SDS011;33708;49.466;11.176;2024-02-26T04:22:20;16.60;;;5.30;;
4698;SDS011;33708;49.466;11.176;2024-02-26T04:24:46;9.67;;;5.00;;
4698;SDS011;33708;49.466;11.176;2024-02-26T04:27:11;11.47;;;5.40;;
4698;SDS011;33708;49.466;11.176;2024-02-26T04:29:37;12.23;;;6.67;;
4698;SDS011;33708;49.466;11.176;2024-02-26T04:32:02;11.77;;;6.33;;
4698;SDS011;33708;49.466;11.176;2024-02-26T04:34:28;17.27;;;5.47;;
4698;SDS011;33708;49.466;11.176;2024-02-26T04:36:54;12.30;;;6.60;;
4698;SDS011;33708;49.466;11.176;2024-02-26T04:39:20;11.70;;;6.63;;
4698;SDS011;33708;49.466;11.176;2024-02-26T04:41:45;8.73;;;5.13;;
4698;SDS011;33708;49.466;11.176;2024-02-26T04:44:11;10.93;;;4.93;;
4698;SDS011;33708;49.466;11.176;2024-02-26T04:46:37;12.27;;;5.83;;
4698;SDS011;33708;49.466;11.176;2024-02-26T04:49:02;19.50;;;7.20;;
4698;SDS011;33708;49.466;11.176;2024-02-26T04:51:28;20.70;;;7.67;;
4698;SDS011;33708;49.466;11.176;2024-02-26T04:53:53;12.40;;;6.90;;
4698;SDS011;33708;49.466;11.176;2024-02-26T04:56:22;15.40;;;5.57;;
4698;SDS011;33708;49.466;11.176;2024-02-26T04:58:48;13.20;;;6.67;;
4698;SDS011;33708;49.466;11.176;2024-02-26T05:01:13;10.40;;;5.87;;
4698;SDS011;33708;49.466;11.176;2024-02-26T05:03:41;9.43;;;5.57;;
4698;SDS011;33708;49.466;11.176;2024-02-26T05:06:06;11.43;;;5.77;;
4698;SDS011;33708;49.466;11.176;2024-02-26T05:08:32;9.80;;;6.10;;
4698;SDS011;33708;49.466;11.176;2024-02-26T05:11:00;10.27;;;5.90;;
4698;SDS011;33708;49.466;11.176;2024-02-26T05:13:27;9.87;;;5.20;;
4698;SDS011;33708;49.466;11.176;2024-02-26T05:15:53;9.47;;;5.80;;
4698;SDS011;33708;49.466;11.176;2024-02-26T05:18:19;9.47;;;6.17;;
4698;SDS011;33708;49.466;11.176;2024-02-26T05:20:45;11.17;;;6.23;;
4698;SDS011;33708;49.466;11.176;2024-02-26T05:23:10;13.67;;;8.60;;
4698;SDS011;33708;49.466;11.176;2024-02-26T05:25:36;11.30;;;6.27;;
4698;SDS011;33708;49.466;11.176;2024-02-26T05:28:01;10.17;;;6.47;;
4698;SDS011;33708;49.466;11.176;2024-02-26T05:30:27;11.13;;;5.87;;
4698;SDS011;33708;49.466;11.176;2024-02-26T05:32:53;9.50;;;5.70;;
4698;SDS011;33708;49.466;11.176;2024-02-26T05:35:19;8.80;;;5.10;;
4698;SDS011;33708;49.466;11.176;2024-02-26T05:37:44;10.83;;;4.97;;
4698;SDS011;33708;49.466;11.176;2024-02-26T05:40:10;9.27;;;5.60;;
4698;SDS011;33708;49.466;11.176;2024-02-26T05:42:36;9.60;;;5.20;;
4698;SDS011;33708;49.466;11.176;2024-02-26T05:45:02;10.60;;;6.17;;
4698;SDS011;33708;49.466;11.176;2024-02-26T05:47:32;9.53;;;5.87;;
4698;SDS011;33708;49.466;11.176;2024-02-26T05:49:58;9.23;;;5.80;;
4698;SDS011;33708;49.466;11.176;2024-02-26T05:52:25;9.70;;;5.17;;
4698;SDS011;33708;49.466;11.176;2024-02-26T05:54:51;15.23;;;5.50;;
4698;SDS011;33708;49.466;11.176;2024-02-26T05:57:17;11.03;;;6.17;;
4698;SDS011;33708;49.466;11.176;2024-02-26T05:59:43;14.77;;;5.33;;
4698;SDS011;33708;49.466;11.176;2024-02-26T06:02:09;9.40;;;5.30;;
4698;SDS011;33708;49.466;11.176;2024-02-26T06:04:34;6.37;;;4.20;;
4698;SDS011;33708;49.466;11.176;2024-02-26T06:07:00;11.70;;;5.90;;
4698;SDS011;33708;49.466;11.176;2024-02-26T06:09:26;8.17;;;4.70;;
4698;SDS011;33708;49.466;11.176;2024-02-26T06:11:51;13.13;;;6.40;;
4698;SDS011;33708;49.466;11.176;2024-02-26T06:14:20;12.83;;;5.90;;
4698;SDS011;33708;49.466;11.176;2024-02-26T06:16:46;10.00;;;6.63;;
4698;SDS011;33708;49.466;11.176;2024-02-26T06:19:12;13.60;;;5.17;;
4698;SDS011;33708;49.466;11.176;2024-02-26T06:21:37;9.67;;;5.03;;
4698;SDS011;33708;49.466;11.176;2024-02-26T06:24:03;9.93;;;5.13;;
4698;SDS011;33708;49.466;11.176;2024-02-26T06:26:29;8.10;;;5.30;;
4698;SDS011;33708;49.466;11.176;2024-02-26T06:28:55;9.43;;;5.30;;
4698;SDS011;33708;49.466;11.176;2024-02-26T06:31:23;9.10;;;5.23;;
4698;SDS011;33708;49.466;11.176;2024-02-26T06:33:49;9.00;;;5.80;;
4698;SDS011;33708;49.466;11.176;2024-02-26T06:36:15;9.17;;;5.97;;
4698;SDS011;33708;49.466;11.176;2024-02-26T06:38:41;11.13;;;5.53;;
4698;SDS011;33708;49.466;11.176;2024-02-26T06:41:06;11.60;;;6.40;;
4698;SDS011;33708;49.466;11.176;2024-02-26T06:43:32;11.27;;;6.93;;
4698;SDS011;33708;49.466;11.176;2024-02-26T06:45:58;11.53;;;6.77;;
4698;SDS011;33708;49.466;11.176;2024-02-26T06:48:24;12.43;;;6.20;;
4698;SDS011;33708;49.466;11.176;2024-02-26T06:50:49;13.20;;;5.63;;
4698;SDS011;33708;49.466;11.176;2024-02-26T06:53:15;10.20;;;6.17;;
4698;SDS011;33708;49.466;11.176;2024-02-26T06:55:41;13.10;;;7.03;;
4698;SDS011;33708;49.466;11.176;2024-02-26T06:58:08;15.43;;;7.57;;
4698;SDS011;33708;49.466;11.176;2024-02-26T07:00:33;12.43;;;6.60;;
4698;SDS011;33708;49.466;11.176;2024-02-26T07:02:59;11.30;;;6.63;;
4698;SDS011;33708;49.466;11.176;2024-02-26T07:05:25;10.60;;;6.50;;
4698;SDS011;33708;49.466;11.176;2024-02-26T07:07:53;11.23;;;7.00;;
4698;SDS011;33708;49.466;11.176;2024-02-26T07:10:18;11.97;;;7.03;;
4698;SDS011;33708;49.466;11.176;2024-02-26T07:12:44;8.23;;;5.83;;
4698;SDS011;33708;49.466;11.176;2024-02-26T07:15:10;12.20;;;6.10;;
4698;SDS011;33708;49.466;11.176;2024-02-26T07:17:35;12.03;;;7.17;;
4698;SDS011;33708;49.466;11.176;2024-02-26T07:20:01;10.50;;;6.73;;
4698;SDS011;33708;49.466;11.176;2024-02-26T07:22:30;13.73;;;6.37;;
4698;SDS011;33708;49.466;11.176;2024-02-26T07:24:56;12.70;;;6.97;;
4698;SDS011;33708;49.466;11.176;2024-02-26T07:27:21;12.10;;;7.37;;
4698;SDS011;33708;49.466;11.176;2024-02-26T07:29:47;12.00;;;7.43;;
4698;SDS011;33708;49.466;11.176;2024-02-26T07:32:12;11.97;;;7.40;;
4698;SDS011;33708;49.466;11.176;2024-02-26T07:34:39;10.40;;;6.40;;
4698;SDS011;33708;49.466;11.176;2024-02-26T07:37:07;12.40;;;7.10;;
4698;SDS011;33708;49.466;11.176;2024-02-26T07:39:33;12.37;;;7.50;;
4698;SDS011;33708;49.466;11.176;2024-02-26T07:41:58;17.43;;;7.90;;
4698;SDS011;33708;49.466;11.176;2024-02-26T07:44:24;12.40;;;6.37;;
4698;SDS011;33708;49.466;11.176;2024-02-26T07:46:50;11.17;;;6.17;;
4698;SDS011;33708;49.466;11.176;2024-02-26T07:49:15;10.83;;;6.27;;
4698;SDS011;33708;49.466;11.176;2024-02-26T07:51:41;11.63;;;6.70;;
4698;SDS011;33708;49.466;11.176;2024-02-26T07:54:07;11.07;;;6.13;;
4698;SDS011;33708;49.466;11.176;2024-02-26T07:56:33;11.60;;;7.20;;
4698;SDS011;33708;49.466;11.176;2024-02-26T07:58:58;11.40;;;6.80;;
4698;SDS011;33708;49.466;11.176;2024-02-26T08:01:24;12.87;;;7.67;;
4698;SDS011;33708;49.466;11.176;2024-02-26T08:03:51;12.73;;;8.03;;
4698;SDS011;33708;49.466;11.176;2024-02-26T08:06:20;12.83;;;7.90;;
4698;SDS011;33708;49.466;11.176;2024-02-26T08:08:46;16.90;;;7.90;;
4698;SDS011;33708;49.466;11.176;2024-02-26T08:11:13;14.40;;;7.83;;
4698;SDS011;33708;49.466;11.176;2024-02-26T08:13:40;14.53;;;7.43;;
4698;SDS011;33708;49.466;11.176;2024-02-26T08:16:05;16.80;;;7.93;;
4698;SDS011;33708;49.466;11.176;2024-02-26T08:18:31;18.80;;;7.90;;
4698;SDS011;33708;49.466;11.176;2024-02-26T08:20:56;11.67;;;7.50;;
4698;SDS011;33708;49.466;11.176;2024-02-26T08:23:22;12.30;;;7.03;;
4698;SDS011;33708;49.466;11.176;2024-02-26T08:25:49;18.80;;;7.80;;
4698;SDS011;33708;49.466;11.176;2024-02-26T08:28:15;18.77;;;8.50;;
4698;SDS011;33708;49.466;11.176;2024-02-26T08:30:42;12.90;;;7.17;;
4698;SDS011;33708;49.466;11.176;2024-02-26T08:33:08;18.00;;;7.83;;
4698;SDS011;33708;49.466;11.176;2024-02-26T08:35:35;13.90;;;7.57;;
4698;SDS011;33708;49.466;11.176;2024-02-26T08:38:01;11.83;;;6.70;;
4698;SDS011;33708;49.466;11.176;2024-02-26T08:40:26;11.77;;;7.30;;
4698;SDS011;33708;49.466;11.176;2024-02-26T08:42:52;14.30;;;8.10;;
4698;SDS011;33708;49.466;11.176;2024-02-26T08:45:18;16.67;;;6.47;;
4698;SDS011;33708;49.466;11.176;2024-02-26T08:47:44;11.30;;;6.90;;
4698;SDS011;33708;49.466;11.176;2024-02-26T08:50:11;12.13;;;7.10;;
4698;SDS011;33708;49.466;11.176;2024-02-26T08:52:37;16.47;;;8.67;;
4698;SDS011;33708;49.466;11.176;2024-02-26T08:55:03;15.03;;;7.47;;
4698;SDS011;33708;49.466;11.176;2024-02-26T08:57:30;12.63;;;8.10;;
4698;SDS011;33708;49.466;11.176;2024-02-26T08:59:59;13.00;;;7.83;;
4698;SDS011;33708;49.466;11.176;2024-02-26T09:02:25;15.10;;;8.27;;
4698;SDS011;33708;49.466;11.176;2024-02-26T09:04:51;15.10;;;6.87;;
4698;SDS011;33708;49.466;11.176;2024-02-26T09:07:19;11.97;;;7.07;;
4698;SDS011;33708;49.466;11.176;2024-02-26T09:09:45;12.50;;;8.17;;
4698;SDS011;33708;49.466;11.176;2024-02-26T09:12:10;11.67;;;7.57;;
4698;SDS011;33708;49.466;11.176;2024-02-26T09:14:36;10.67;;;7.10;;
4698;SDS011;33708;49.466;11.176;2024-02-26T09:17:02;11.53;;;7.13;;
4698;SDS011;33708;49.466;11.176;2024-02-26T09:19:27;9.30;;;6.70;;
4698;SDS011;33708;49.466;11.176;2024-02-26T09:21:53;10.53;;;7.37;;
4698;SDS011;33708;49.466;11.176;2024-02-26T09:24:22;9.67;;;6.67;;
4698;SDS011;33708;49.466;11.176;2024-02-26T09:26:49;11.77;;;6.63;;
4698;SDS011;33708;49.466;11.176;2024-02-26T09:29:15;14.40;;;7.90;;
4698;SDS011;33708;49.466;11.176;2024-02-26T09:31:40;11.57;;;7.47;;
4698;SDS011;33708;49.466;11.176;2024-02-26T09:34:06;10.07;;;5.70;;
4698;SDS011;33708;49.466;11.176;2024-02-26T09:36:35;14.23;;;7.27;;
4698;SDS011;33708;49.466;11.176;2024-02-26T09:39:01;9.60;;;6.20;;
4698;SDS011;33708;49.466;11.176;2024-02-26T09:41:28;12.53;;;6.87;;
4698;SDS011;33708;49.466;11.176;2024-02-26T09:43:57;11.40;;;6.60;;
4698;SDS011;33708;49.466;11.176;2024-02-26T09:46:27;9.63;;;6.47;;
4698;SDS011;33708;49.466;11.176;2024-02-26T09:48:53;9.83;;;7.17;;
4698;SDS011;33708;49.466;11.176;2024-02-26T09:51:19;12.00;;;6.63;;
4698;SDS011;33708;49.466;11.176;2024-02-26T09:53:48;16.33;;;7.67;;
4698;SDS011;33708;49.466;11.176;2024-02-26T09:56:17;11.97;;;5.83;;
4698;SDS011;33708;49.466;11.176;2024-02-26T09:58:43;10.50;;;7.17;;
4698;SDS011;33708;49.466;11.176;2024-02-26T10:01:13;10.50;;;6.57;;
4698;SDS011;33708;49.466;11.176;2024-02-26T10:03:44;10.77;;;5.77;;
4698;SDS011;33708;49.466;11.176;2024-02-26T10:06:20;10.57;;;6.33;;
4698;SDS011;33708;49.466;11.176;2024-02-26T10:08:46;10.50;;;5.40;;
4698;SDS011;33708;49.466;11.176;2024-02-26T10:11:13;10.00;;;6.40;;
4698;SDS011;33708;49.466;11.176;2024-02-26T10:13:40;10.60;;;5.50;;
4698;SDS011;33708;49.466;11.176;2024-02-26T10:16:06;10.87;;;6.43;;
4698;SDS011;33708;49.466;11.176;2024-02-26T10:18:48;10.00;;;6.30;;
4698;SDS011;33708;49.466;11.176;2024-02-26T10:21:17;11.97;;;6.43;;
4698;SDS011;33708;49.466;11.176;2024-02-26T10:23:49;9.50;;;6.00;;
4698;SDS011;33708;49.466;11.176;2024-02-26T10:26:18;8.10;;;5.70;;
4698;SDS011;33708;49.466;11.176;2024-02-26T10:28:45;14.53;;;6.43;;
4698;SDS011;33708;49.466;11.176;2024-02-26T10:31:13;8.17;;;5.47;;
4698;SDS011;33708;49.466;11.176;2024-02-26T10:33:39;9.97;;;5.53;;
4698;SDS011;33708;49.466;11.176;2024-02-26T10:36:07;8.73;;;5.23;;
4698;SDS011;33708;49.466;11.176;2024-02-26T10:38:35;8.60;;;5.67;;
4698;SDS011;33708;49.466;11.176;2024-02-26T10:41:12;9.10;;;5.80;;
4698;SDS011;33708;49.466;11.176;2024-02-26T10:43:44;9.93;;;5.50;;
4698;SDS011;33708;49.466;11.176;2024-02-26T10:46:12;10.13;;;5.13;;
4698;SDS011;33708;49.466;11.176;2024-02-26T10:48:52;8.73;;;5.87;;
4698;SDS011;33708;49.466;11.176;2024-02-26T10:51:20;12.63;;;4.93;;
4698;SDS011;33708;49.466;11.176;2024-02-26T10:53:57;7.80;;;5.30;;
4698;SDS011;33708;49.466;11.176;2024-02-26T10:56:26;12.20;;;5.90;;
4698;SDS011;33708;49.466;11.176;2024-02-26T10:58:55;7.60;;;5.10;;
4698;SDS011;33708;49.466;11.176;2024-02-26T11:01:24;10.00;;;5.57;;
4698;SDS011;33708;49.466;11.176;2024-02-26T11:03:53;9.40;;;5.50;;
4698;SDS011;33708;49.466;11.176;2024-02-26T11:06:24;8.10;;;4.97;;
4698;SDS011;33708;49.466;11.176;2024-02-26T11:08:53;7.43;;;4.80;;
4698;SDS011;33708;49.466;11.176;2024-02-26T11:11:21;9.97;;;5.20;;
4698;SDS011;33708;49.466;11.176;2024-02-26T11:14:10;9.43;;;4.77;;
4698;SDS011;33708;49.466;11.176;2024-02-26T11:16:38;7.63;;;5.10;;
4698;SDS011;33708;49.466;11.176;2024-02-26T11:19:06;7.90;;;4.90;;
4698;SDS011;33708;49.466;11.176;2024-02-26T11:21:35;10.90;;;5.50;;
4698;SDS011;33708;49.466;11.176;2024-02-26T11:24:06;6.70;;;4.83;;
4698;SDS011;33708;49.466;11.176;2024-02-26T11:26:35;9.27;;;5.23;;
4698;SDS011;33708;49.466;11.176;2024-02-26T11:29:17;13.30;;;4.83;;
4698;SDS011;33708;49.466;11.176;2024-02-26T11:31:46;8.60;;;5.00;;
4698;SDS011;33708;49.466;11.176;2024-02-26T11:34:12;8.83;;;4.70;;
4698;SDS011;33708;49.466;11.176;2024-02-26T11:36:38;7.10;;;4.40;;
4698;SDS011;33708;49.466;11.176;2024-02-26T11:39:04;7.90;;;5.13;;
4698;SDS011;33708;49.466;11.176;2024-02-26T11:41:30;6.40;;;4.33;;
4698;SDS011;33708;49.466;11.176;2024-02-26T11:44:03;8.70;;;4.73;;
4698;SDS011;33708;49.466;11.176;2024-02-26T11:46:32;9.87;;;4.43;;
4698;SDS011;33708;49.466;11.176;2024-02-26T11:49:03;8.33;;;4.90;;
4698;SDS011;33708;49.466;11.176;2024-02-26T11:51:52;8.93;;;4.70;;
4698;SDS011;33708;49.466;11.176;2024-02-26T11:57:30;7.80;;;4.10;;
4698;SDS011;33708;49.466;11.176;2024-02-26T12:05:16;5.90;;;3.63;;
4698;SDS011;33708;49.466;11.176;2024-02-26T12:07:46;8.50;;;4.10;;
4698;SDS011;33708;49.466;11.176;2024-02-26T12:10:14;6.70;;;4.20;;
4698;SDS011;33708;49.466;11.176;2024-02-26T12:15:36;6.70;;;4.03;;
4698;SDS011;33708;49.466;11.176;2024-02-26T12:18:03;7.67;;;4.67;;
4698;SDS011;33708;49.466;11.176;2024-02-26T12:20:30;6.47;;;4.30;;
4698;SDS011;33708;49.466;11.176;2024-02-26T12:22:57;6.30;;;4.07;;
4698;SDS011;33708;49.466;11.176;2024-02-26T12:25:26;7.60;;;3.87;;
4698;SDS011;33708;49.466;11.176;2024-02-26T12:27:53;6.70;;;3.70;;
4698;SDS011;33708;49.466;11.176;2024-02-26T12:30:19;5.50;;;2.20;;
4698;SDS011;33708;49.466;11.176;2024-02-26T12:32:48;7.60;;;2.50;;
4698;SDS011;33708;49.466;11.176;2024-02-26T12:35:15;5.20;;;2.50;;
4698;SDS011;33708;49.466;11.176;2024-02-26T12:37:41;5.27;;;3.20;;
4698;SDS011;33708;49.466;11.176;2024-02-26T12:40:08;5.00;;;2.93;;
4698;SDS011;33708;49.466;11.176;2024-02-26T12:42:34;5.53;;;2.77;;
4698;SDS011;33708;49.466;11.176;2024-02-26T12:45:07;6.00;;;2.23;;
4698;SDS011;33708;49.466;11.176;2024-02-26T12:47:43;3.87;;;2.00;;
4698;SDS011;33708;49.466;11.176;2024-02-26T12:50:14;6.90;;;2.00;;
4698;SDS011;33708;49.466;11.176;2024-02-26T12:52:44;4.77;;;2.40;;
4698;SDS011;33708;49.466;11.176;2024-02-26T12:55:12;4.33;;;1.80;;
4698;SDS011;33708;49.466;11.176;2024-02-26T12:57:40;3.87;;;2.10;;
4698;SDS011;33708;49.466;11.176;2024-02-26T13:00:08;6.40;;;2.50;;
4698;SDS011;33708;49.466;11.176;2024-02-26T13:02:37;6.40;;;2.27;;
4698;SDS011;33708;49.466;11.176;2024-02-26T13:05:04;5.27;;;1.80;;
4698;SDS011;33708;49.466;11.176;2024-02-26T13:07:31;4.63;;;2.03;;
4698;SDS011;33708;49.466;11.176;2024-02-26T13:09:58;5.00;;;2.10;;
4698;SDS011;33708;49.466;11.176;2024-02-26T13:12:23;4.00;;;2.10;;
4698;SDS011;33708;49.466;11.176;2024-02-26T13:14:59;8.60;;;2.17;;
4698;SDS011;33708;49.466;11.176;2024-02-26T13:17:26;4.03;;;2.30;;
4698;SDS011;33708;49.466;11.176;2024-02-26T13:19:53;4.70;;;1.80;;
4698;SDS011;33708;49.466;11.176;2024-02-26T13:22:20;4.17;;;1.80;;
4698;SDS011;33708;49.466;11.176;2024-02-26T13:24:53;3.57;;;1.77;;
4698;SDS011;33708;49.466;11.176;2024-02-26T13:27:23;4.10;;;1.70;;
4698;SDS011;33708;49.466;11.176;2024-02-26T13:29:49;4.17;;;1.73;;
4698;SDS011;33708;49.466;11.176;2024-02-26T13:32:36;12.87;;;1.83;;
4698;SDS011;33708;49.466;11.176;2024-02-26T13:35:10;3.90;;;1.70;;
4698;SDS011;33708;49.466;11.176;2024-02-26T13:37:37;4.03;;;1.63;;
4698;SDS011;33708;49.466;11.176;2024-02-26T13:40:04;4.10;;;1.47;;
4698;SDS011;33708;49.466;11.176;2024-02-26T13:42:34;3.30;;;1.90;;
4698;SDS011;33708;49.466;11.176;2024-02-26T13:45:00;3.03;;;1.40;;
4698;SDS011;33708;49.466;11.176;2024-02-26T13:47:26;4.57;;;1.77;;
4698;SDS011;33708;49.466;11.176;2024-02-26T13:49:52;4.10;;;2.03;;
4698;SDS011;33708;49.466;11.176;2024-02-26T13:52:18;4.00;;;1.83;;
4698;SDS011;33708;49.466;11.176;2024-02-26T13:54:45;5.40;;;1.87;;
4698;SDS011;33708;49.466;11.176;2024-02-26T13:57:11;3.67;;;1.83;;
4698;SDS011;33708;49.466;11.176;2024-02-26T13:59:36;5.13;;;1.93;;
4698;SDS011;33708;49.466;11.176;2024-02-26T14:02:02;5.67;;;2.03;;
4698;SDS011;33708;49.466;11.176;2024-02-26T14:04:29;3.87;;;1.77;;
4698;SDS011;33708;49.466;11.176;2024-02-26T14:06:54;5.13;;;2.40;;
4698;SDS011;33708;49.466;11.176;2024-02-26T14:09:20;4.70;;;2.60;;
4698;SDS011;33708;49.466;11.176;2024-02-26T14:11:45;7.70;;;2.77;;
4698;SDS011;33708;49.466;11.176;2024-02-26T14:14:11;6.20;;;2.90;;
4698;SDS011;33708;49.466;11.176;2024-02-26T14:16:37;6.93;;;3.10;;
4698;SDS011;33708;49.466;11.176;2024-02-26T14:19:02;4.87;;;3.23;;
4698;SDS011;33708;49.466;11.176;2024-02-26T14:21:28;7.40;;;2.70;;
4698;SDS011;33708;49.466;11.176;2024-02-26T14:23:57;5.73;;;3.20;;
4698;SDS011;33708;49.466;11.176;2024-02-26T14:26:22;4.80;;;2.90;;
4698;SDS011;33708;49.466;11.176;2024-02-26T14:28:48;6.83;;;3.80;;
4698;SDS011;33708;49.466;11.176;2024-02-26T14:31:17;7.13;;;3.30;;
4698;SDS011;33708;49.466;11.176;2024-02-26T14:33:42;6.10;;;4.03;;
4698;SDS011;33708;49.466;11.176;2024-02-26T14:36:08;8.50;;;3.07;;
4698;SDS011;33708;49.466;11.176;2024-02-26T14:38:34;5.90;;;3.33;;
4698;SDS011;33708;49.466;11.176;2024-02-26T14:41:00;6.10;;;3.10;;
4698;SDS011;33708;49.466;11.176;2024-02-26T14:43:25;5.50;;;3.43;;
4698;SDS011;33708;49.466;11.176;2024-02-26T14:45:51;8.17;;;3.87;;
4698;SDS011;33708;49.466;11.176;2024-02-26T14:48:16;4.60;;;3.10;;
4698;SDS011;33708;49.466;11.176;2024-02-26T14:50:42;7.77;;;3.43;;